createdAt,value
2023-01-22T00:28:52.899Z,8.20
2023-01-22T00:31:19.325Z,7.65
2023-01-22T00:33:47.516Z,8.73
2023-01-22T00:36:15.323Z,8.55
2023-01-22T00:38:41.726Z,7.55
2023-01-22T00:41:08.440Z,7.93
2023-01-22T00:43:35.462Z,8.20
2023-01-22T00:46:01.737Z,6.45
2023-01-22T00:48:28.413Z,6.93
2023-01-22T00:50:54.964Z,6.10
2023-01-22T00:53:21.355Z,6.38
2023-01-22T00:55:51.558Z,6.75
2023-01-22T00:58:17.995Z,7.07
2023-01-22T01:00:44.399Z,5.85
2023-01-22T01:03:29.454Z,6.07
2023-01-22T01:05:57.160Z,5.65
2023-01-22T01:08:24.739Z,6.40
2023-01-22T01:10:58.329Z,4.38
2023-01-22T01:13:25.411Z,5.38
2023-01-22T01:16:02.839Z,5.60
2023-01-22T01:18:29.753Z,5.90
2023-01-22T01:20:56.659Z,5.60
2023-01-22T01:23:23.651Z,5.70
2023-01-22T01:25:50.130Z,5.97
2023-01-22T01:28:16.928Z,5.90
2023-01-22T01:30:43.297Z,5.40
2023-01-22T01:33:09.714Z,5.40
2023-01-22T01:35:35.940Z,5.47
2023-01-22T01:38:02.375Z,5.35
2023-01-22T01:40:28.726Z,4.40
2023-01-22T01:42:55.198Z,5.38
2023-01-22T01:45:32.375Z,5.03
2023-01-22T01:48:17.330Z,5.50
2023-01-22T01:50:46.519Z,5.43
2023-01-22T01:53:13.141Z,4.68
2023-01-22T01:55:39.524Z,5.03
2023-01-22T01:58:11.057Z,4.90
2023-01-22T02:00:38.847Z,4.55
2023-01-22T02:03:05.108Z,5.53
2023-01-22T02:05:34.315Z,4.97
2023-01-22T02:08:00.677Z,4.13
2023-01-22T02:10:26.966Z,4.40
2023-01-22T02:12:56.477Z,4.40
2023-01-22T02:15:23.305Z,4.28
2023-01-22T02:17:49.552Z,4.65
2023-01-22T02:20:16.328Z,4.18
2023-01-22T02:22:42.866Z,4.38
2023-01-22T02:25:09.362Z,4.18
2023-01-22T02:27:35.681Z,4.13
2023-01-22T02:30:05.452Z,4.60
2023-01-22T02:32:31.775Z,4.38
2023-01-22T02:34:58.257Z,4.05
2023-01-22T02:37:25.881Z,4.47
2023-01-22T02:39:54.188Z,4.30
2023-01-22T02:42:20.557Z,4.40
2023-01-22T02:44:46.878Z,3.97
2023-01-22T02:47:13.187Z,4.20
2023-01-22T02:49:39.634Z,4.03
2023-01-22T02:52:06.079Z,4.45
2023-01-22T02:54:33.586Z,3.47
2023-01-22T02:56:59.882Z,3.85
2023-01-22T02:59:26.194Z,4.20
2023-01-22T03:01:52.571Z,4.20
2023-01-22T03:04:19.000Z,3.80
2023-01-22T03:06:46.636Z,4.05
2023-01-22T03:09:15.076Z,3.83
2023-01-22T03:11:42.184Z,3.92
2023-01-22T03:14:34.497Z,4.03
2023-01-22T03:20:28.876Z,3.45
2023-01-22T03:22:55.203Z,3.67
2023-01-22T03:25:21.513Z,3.67
2023-01-22T03:28:09.113Z,3.60
2023-01-22T03:30:38.308Z,3.67
2023-01-22T03:33:04.544Z,3.80
2023-01-22T03:35:31.183Z,3.63
2023-01-22T03:38:18.780Z,3.60
2023-01-22T03:40:45.739Z,3.60
2023-01-22T03:43:12.065Z,3.55
2023-01-22T03:45:38.421Z,3.65
2023-01-22T03:48:05.813Z,3.70
2023-01-22T03:50:37.340Z,3.03
2023-01-22T03:53:04.036Z,3.50
2023-01-22T03:55:31.416Z,3.55
2023-01-22T03:57:57.681Z,3.70
2023-01-22T04:00:24.489Z,3.25
2023-01-22T04:02:53.507Z,3.42
2023-01-22T04:05:23.671Z,3.65
2023-01-22T04:07:50.708Z,3.45
2023-01-22T04:10:20.568Z,3.53
2023-01-22T04:12:47.930Z,3.22
2023-01-22T04:15:17.262Z,3.40
2023-01-22T04:17:45.489Z,3.00
2023-01-22T04:20:31.980Z,3.35
2023-01-22T04:23:16.728Z,3.10
2023-01-22T04:25:43.885Z,3.42
2023-01-22T04:28:14.451Z,3.70
2023-01-22T04:30:42.126Z,3.25
2023-01-22T04:33:28.225Z,3.22
2023-01-22T04:36:03.919Z,3.28
2023-01-22T04:38:30.221Z,2.92
2023-01-22T04:40:56.580Z,3.15
2023-01-22T04:43:22.879Z,3.05
2023-01-22T04:45:50.211Z,3.33
2023-01-22T04:48:18.958Z,3.30
2023-01-22T04:50:46.657Z,3.45
2023-01-22T04:53:12.995Z,3.50
2023-01-22T04:55:41.776Z,3.15
2023-01-22T04:58:09.641Z,3.15
2023-01-22T05:00:36.760Z,3.35
2023-01-22T05:03:04.202Z,3.38
2023-01-22T05:05:31.456Z,3.60
2023-01-22T05:07:58.087Z,3.67
2023-01-22T05:10:24.364Z,3.50
2023-01-22T05:12:51.059Z,3.30
2023-01-22T05:15:24.343Z,3.35
2023-01-22T05:17:53.242Z,3.22
2023-01-22T05:20:20.138Z,3.47
2023-01-22T05:22:46.626Z,3.30
2023-01-22T05:25:13.268Z,3.70
2023-01-22T05:27:40.054Z,3.15
2023-01-22T05:30:12.961Z,3.30
2023-01-22T05:32:48.838Z,3.42
2023-01-22T05:35:16.141Z,3.50
2023-01-22T05:37:44.631Z,3.42
2023-01-22T05:40:12.469Z,3.72
2023-01-22T05:42:38.794Z,3.15
2023-01-22T05:45:07.116Z,3.03
2023-01-22T05:47:38.300Z,3.33
2023-01-22T05:50:28.410Z,3.20
2023-01-22T05:53:01.942Z,3.50
2023-01-22T05:55:28.658Z,3.33
2023-01-22T05:57:54.926Z,3.80
2023-01-22T06:00:22.292Z,3.15
2023-01-22T06:02:58.597Z,3.22
2023-01-22T06:05:25.906Z,3.22
2023-01-22T06:07:59.661Z,3.08
2023-01-22T06:10:30.105Z,3.45
2023-01-22T06:12:57.052Z,3.50
2023-01-22T06:15:23.388Z,3.20
2023-01-22T06:18:01.549Z,3.78
2023-01-22T06:20:27.823Z,3.60
2023-01-22T06:22:54.113Z,3.55
2023-01-22T06:25:20.410Z,3.30
2023-01-22T06:28:08.197Z,3.45
2023-01-22T06:30:35.284Z,3.58
2023-01-22T06:33:02.556Z,3.53
2023-01-22T06:35:28.845Z,3.40
2023-01-22T06:37:55.937Z,3.50
2023-01-22T06:40:23.441Z,3.75
2023-01-22T06:42:50.114Z,3.55
2023-01-22T06:45:17.224Z,3.67
2023-01-22T06:47:48.955Z,4.07
2023-01-22T06:50:15.770Z,3.95
2023-01-22T06:52:42.187Z,3.70
2023-01-22T06:55:09.314Z,3.20
2023-01-22T06:57:37.789Z,3.47
2023-01-22T07:00:05.308Z,3.53
2023-01-22T07:02:31.561Z,3.70
2023-01-22T07:04:58.210Z,4.20
2023-01-22T07:07:24.497Z,3.58
2023-01-22T07:09:50.753Z,3.90
2023-01-22T07:12:16.980Z,3.83
2023-01-22T07:14:43.249Z,4.15
2023-01-22T07:17:09.884Z,4.20
2023-01-22T07:19:36.207Z,3.67
2023-01-22T07:22:02.556Z,3.70
2023-01-22T07:24:28.812Z,3.45
2023-01-22T07:26:55.242Z,3.97
2023-01-22T07:29:21.609Z,4.20
2023-01-22T07:31:49.720Z,3.72
2023-01-22T07:34:16.301Z,4.10
2023-01-22T07:36:42.586Z,3.85
2023-01-22T07:39:08.853Z,3.65
2023-01-22T07:41:35.108Z,3.40
2023-01-22T07:44:10.016Z,3.75
2023-01-22T07:46:36.385Z,3.55
2023-01-22T07:49:02.718Z,3.92
2023-01-22T07:51:28.992Z,3.97
2023-01-22T07:53:55.346Z,3.80
2023-01-22T07:56:21.654Z,3.90
2023-01-22T07:58:47.916Z,4.20
2023-01-22T08:01:14.294Z,4.93
2023-01-22T08:03:40.698Z,4.57
2023-01-22T08:06:16.831Z,4.65
2023-01-22T08:08:43.162Z,5.03
2023-01-22T08:11:09.768Z,5.13
2023-01-22T08:13:36.012Z,3.90
2023-01-22T08:16:02.394Z,4.25
2023-01-22T08:18:28.884Z,3.97
2023-01-22T08:20:55.233Z,4.45
2023-01-22T08:23:22.087Z,3.90
2023-01-22T08:25:48.509Z,4.20
2023-01-22T08:28:15.113Z,4.25
2023-01-22T08:30:46.373Z,3.72
2023-01-22T08:33:12.944Z,3.47
2023-01-22T08:35:39.713Z,3.65
2023-01-22T08:38:06.177Z,3.60
2023-01-22T08:40:32.589Z,4.03
2023-01-22T08:42:59.028Z,3.47
2023-01-22T08:45:25.577Z,3.80
2023-01-22T08:47:55.758Z,4.05
2023-01-22T08:50:22.068Z,4.07
2023-01-22T08:52:48.373Z,3.53
2023-01-22T08:55:14.761Z,4.20
2023-01-22T08:57:41.196Z,3.97
2023-01-22T09:00:08.424Z,3.90
2023-01-22T09:02:34.786Z,4.00
2023-01-22T09:05:01.127Z,4.30
2023-01-22T09:07:27.458Z,4.28
2023-01-22T09:09:53.747Z,3.85
2023-01-22T09:12:20.100Z,3.53
2023-01-22T09:14:47.019Z,3.88
2023-01-22T09:17:13.276Z,4.00
2023-01-22T09:19:40.121Z,3.80
2023-01-22T09:22:07.495Z,3.60
2023-01-22T09:24:34.014Z,4.05
2023-01-22T09:27:00.402Z,3.90
2023-01-22T09:29:26.658Z,3.65
2023-01-22T09:31:53.108Z,3.88
2023-01-22T09:34:19.444Z,3.92
2023-01-22T09:36:45.902Z,4.40
2023-01-22T09:39:12.210Z,3.80
2023-01-22T09:41:39.682Z,3.90
2023-01-22T09:44:20.495Z,4.07
2023-01-22T09:46:49.675Z,3.90
2023-01-22T09:49:17.325Z,4.50
2023-01-22T09:51:45.750Z,4.28
2023-01-22T09:54:15.381Z,4.32
2023-01-22T09:56:43.046Z,3.60
2023-01-22T09:59:14.783Z,4.32
2023-01-22T10:01:41.858Z,3.60
2023-01-22T10:04:16.786Z,3.88
2023-01-22T10:06:45.459Z,3.70
2023-01-22T10:09:11.717Z,3.83
2023-01-22T10:11:38.513Z,3.83
2023-01-22T10:14:07.005Z,3.60
2023-01-22T10:16:33.763Z,3.83
2023-01-22T10:19:02.317Z,3.80
2023-01-22T10:21:33.288Z,3.55
2023-01-22T10:24:00.100Z,3.60
2023-01-22T10:26:26.416Z,3.65
2023-01-22T10:28:55.075Z,3.83
2023-01-22T10:31:24.173Z,4.03
2023-01-22T10:34:00.717Z,3.80
2023-01-22T10:36:27.973Z,4.75
2023-01-22T10:39:08.858Z,4.38
2023-01-22T10:41:35.165Z,3.10
2023-01-22T10:44:08.362Z,3.33
2023-01-22T10:46:34.654Z,4.15
2023-01-22T10:49:01.848Z,4.05
2023-01-22T10:51:34.295Z,4.15
2023-01-22T10:54:00.773Z,3.80
2023-01-22T10:56:32.324Z,3.35
2023-01-22T10:59:00.116Z,4.20
2023-01-22T11:01:32.211Z,4.03
2023-01-22T11:03:58.755Z,5.28
2023-01-22T11:06:40.443Z,4.03
2023-01-22T11:09:32.781Z,4.20
2023-01-22T11:12:15.763Z,3.85
2023-01-22T11:14:42.579Z,4.70
2023-01-22T11:17:20.802Z,4.20
2023-01-22T11:19:50.256Z,4.00
2023-01-22T11:22:43.191Z,3.90
2023-01-22T11:25:10.435Z,4.53
2023-01-22T11:27:36.766Z,4.85
2023-01-22T11:30:09.372Z,3.90
2023-01-22T11:32:38.663Z,3.83
2023-01-22T11:35:23.387Z,3.85
2023-01-22T11:37:58.944Z,3.40
2023-01-22T11:40:27.754Z,3.90
2023-01-22T11:43:12.865Z,3.97
2023-01-22T11:45:39.121Z,3.13
2023-01-22T11:48:19.202Z,3.08
2023-01-22T11:50:51.830Z,3.33
2023-01-22T11:53:29.030Z,3.38
2023-01-22T11:56:24.514Z,3.17
2023-01-22T11:58:50.885Z,3.90
2023-01-22T12:01:21.390Z,3.95
2023-01-22T12:03:53.745Z,4.05
2023-01-22T12:06:32.669Z,3.70
2023-01-22T12:09:17.261Z,3.50
2023-01-22T12:12:05.912Z,3.50
2023-01-22T12:14:38.276Z,3.90
2023-01-22T12:17:04.638Z,3.88
2023-01-22T12:19:49.544Z,3.53
2023-01-22T12:22:24.500Z,3.65
2023-01-22T12:25:09.592Z,3.35
2023-01-22T12:27:37.876Z,3.45
2023-01-22T12:30:07.229Z,3.80
2023-01-22T12:32:36.950Z,3.70
2023-01-22T12:35:08.834Z,4.00
2023-01-22T12:37:39.843Z,3.90
2023-01-22T12:40:06.181Z,3.72
2023-01-22T12:42:36.808Z,5.45
2023-01-22T12:45:03.152Z,4.47
2023-01-22T12:47:36.271Z,5.07
2023-01-22T12:50:04.785Z,5.43
2023-01-22T12:52:32.950Z,3.92
2023-01-22T12:54:59.941Z,3.55
2023-01-22T12:57:35.448Z,4.93
2023-01-22T13:00:10.628Z,5.28
2023-01-22T13:02:37.830Z,4.72
2023-01-22T13:05:22.518Z,4.07
2023-01-22T13:07:49.985Z,4.30
2023-01-22T13:10:19.586Z,3.83
2023-01-22T13:12:47.906Z,4.13
2023-01-22T13:15:34.524Z,4.10
2023-01-22T13:18:07.689Z,3.80
2023-01-22T13:20:35.857Z,3.70
2023-01-22T13:23:02.441Z,3.20
2023-01-22T13:25:29.734Z,3.47
2023-01-22T13:27:56.719Z,3.67
2023-01-22T13:30:26.798Z,3.25
2023-01-22T13:33:03.539Z,4.00
2023-01-22T13:35:29.849Z,4.03
2023-01-22T13:37:56.253Z,3.50
2023-01-22T13:40:22.979Z,2.90
2023-01-22T13:42:49.421Z,3.50
2023-01-22T13:45:18.722Z,3.35
2023-01-22T13:47:45.143Z,3.72
2023-01-22T13:50:18.618Z,3.75
2023-01-22T13:52:45.139Z,4.18
2023-01-22T13:55:15.818Z,4.70
2023-01-22T13:57:45.923Z,3.92
2023-01-22T14:00:26.380Z,3.70
2023-01-22T14:02:52.754Z,4.20
2023-01-22T14:05:23.181Z,4.90
2023-01-22T14:07:49.867Z,4.45
2023-01-22T14:10:16.474Z,4.57
2023-01-22T14:12:42.970Z,3.80
2023-01-22T14:15:15.626Z,4.25
2023-01-22T14:17:41.979Z,4.47
2023-01-22T14:20:08.699Z,4.90
2023-01-22T14:22:35.000Z,4.82
2023-01-22T14:25:01.354Z,5.10
2023-01-22T14:27:29.153Z,5.00
2023-01-22T14:29:55.454Z,5.63
2023-01-22T14:32:23.371Z,5.20
2023-01-22T14:34:49.678Z,4.32
2023-01-22T14:37:16.514Z,5.00
2023-01-22T14:39:42.786Z,4.85
2023-01-22T14:42:09.152Z,5.70
2023-01-22T14:44:35.420Z,5.18
2023-01-22T14:47:01.863Z,5.38
2023-01-22T14:49:28.201Z,6.72
2023-01-22T14:51:54.914Z,6.25
2023-01-22T14:54:21.352Z,5.50
2023-01-22T14:56:47.622Z,5.00
2023-01-22T14:59:14.031Z,5.00
2023-01-22T15:01:40.381Z,5.20
2023-01-22T15:04:06.938Z,5.47
2023-01-22T15:06:33.390Z,6.07
2023-01-22T15:08:59.689Z,5.13
2023-01-22T15:11:26.106Z,5.32
2023-01-22T15:13:52.744Z,4.80
2023-01-22T15:16:19.492Z,5.10
2023-01-22T15:18:45.898Z,5.47
2023-01-22T15:21:12.332Z,5.60
2023-01-22T15:23:38.640Z,5.57
2023-01-22T15:26:05.910Z,5.20
2023-01-22T15:28:32.244Z,5.50
2023-01-22T15:31:07.827Z,5.28
2023-01-22T15:33:35.293Z,5.50
2023-01-22T15:36:01.654Z,5.65
2023-01-22T15:38:28.040Z,5.28
2023-01-22T15:41:03.299Z,5.68
2023-01-22T15:43:29.609Z,5.70
2023-01-22T15:45:56.467Z,5.50
2023-01-22T15:48:22.915Z,6.13
2023-01-22T15:50:49.196Z,5.68
2023-01-22T15:53:15.745Z,5.25
2023-01-22T15:55:48.345Z,5.50
2023-01-22T15:58:14.665Z,5.57
2023-01-22T16:00:40.922Z,5.20
2023-01-22T16:03:07.279Z,5.72
2023-01-22T16:05:33.689Z,6.07
2023-01-22T16:08:00.479Z,5.90
2023-01-22T16:10:26.805Z,6.00
2023-01-22T16:12:53.137Z,6.68
2023-01-22T16:15:19.624Z,7.00
2023-01-22T16:17:46.170Z,7.45
2023-01-22T16:20:12.548Z,6.72
2023-01-22T16:22:38.848Z,7.07
2023-01-22T16:25:05.380Z,7.07
2023-01-22T16:27:31.788Z,7.20
2023-01-22T16:29:58.149Z,7.10
2023-01-22T16:32:24.495Z,6.93
2023-01-22T16:34:50.785Z,6.55
2023-01-22T16:37:17.096Z,5.72
2023-01-22T16:39:43.445Z,6.40
2023-01-22T16:42:09.774Z,7.75
2023-01-22T16:44:36.882Z,7.15
2023-01-22T16:47:03.180Z,5.88
2023-01-22T16:49:30.632Z,5.68
2023-01-22T16:51:58.173Z,6.07
2023-01-22T16:54:28.944Z,6.82
2023-01-22T16:56:59.379Z,6.32
2023-01-22T16:59:27.026Z,6.20
2023-01-22T17:01:54.224Z,6.38
2023-01-22T17:04:20.805Z,6.07
2023-01-22T17:06:48.357Z,7.28
2023-01-22T17:09:19.312Z,6.68
2023-01-22T17:11:48.813Z,6.88
2023-01-22T17:14:16.910Z,7.05
2023-01-22T17:16:43.229Z,7.90
2023-01-22T17:19:09.640Z,7.60
2023-01-22T17:21:36.016Z,8.13
2023-01-22T17:24:03.747Z,8.48
2023-01-22T17:26:30.086Z,7.03
2023-01-22T17:28:56.430Z,6.53
2023-01-22T17:31:24.014Z,6.65
2023-01-22T17:33:51.224Z,6.75
2023-01-22T17:36:19.221Z,6.72
2023-01-22T17:38:45.488Z,6.60
2023-01-22T17:41:14.389Z,6.97
2023-01-22T17:43:40.759Z,6.57
2023-01-22T17:46:08.132Z,6.32
2023-01-22T17:48:35.635Z,6.68
2023-01-22T17:51:03.730Z,6.40
2023-01-22T17:53:30.085Z,6.57
2023-01-22T17:56:03.736Z,7.95
2023-01-22T18:01:00.939Z,7.18
2023-01-22T18:03:27.298Z,6.53
2023-01-22T18:05:54.493Z,7.00
2023-01-22T18:08:20.820Z,6.25
2023-01-22T18:10:47.143Z,6.05
2023-01-22T18:13:13.412Z,6.93
2023-01-22T18:15:44.424Z,6.85
2023-01-22T18:18:10.832Z,6.57
2023-01-22T18:20:40.273Z,5.85
2023-01-22T18:23:06.599Z,5.70
2023-01-22T18:25:32.881Z,6.13
2023-01-22T18:27:59.217Z,6.70
2023-01-22T18:30:26.742Z,7.38
2023-01-22T18:32:53.093Z,6.57
2023-01-22T18:35:19.743Z,6.32
2023-01-22T18:37:46.277Z,6.90
2023-01-22T18:40:12.936Z,6.50
2023-01-22T18:42:39.316Z,6.30
2023-01-22T18:45:06.068Z,5.25
2023-01-22T18:47:34.559Z,5.90
2023-01-22T18:50:00.892Z,5.93
2023-01-22T18:52:27.244Z,6.10
2023-01-22T18:54:53.572Z,6.38
2023-01-22T18:57:19.951Z,6.78
2023-01-22T18:59:46.265Z,7.15
2023-01-22T19:02:15.977Z,7.63
2023-01-22T19:04:42.312Z,8.20
2023-01-22T19:07:08.589Z,7.85
2023-01-22T19:09:34.997Z,7.45
2023-01-22T19:12:01.479Z,6.07
2023-01-22T19:14:27.841Z,5.32
2023-01-22T19:16:54.151Z,5.85
2023-01-22T19:19:21.783Z,6.53
2023-01-22T19:21:51.430Z,6.05
2023-01-22T19:24:19.283Z,5.20
2023-01-22T19:26:46.839Z,5.90
2023-01-22T19:29:14.489Z,6.03
2023-01-22T19:31:41.970Z,5.95
2023-01-22T19:34:09.075Z,6.03
2023-01-22T19:36:38.357Z,5.57
2023-01-22T19:39:06.457Z,5.57
2023-01-22T19:41:32.814Z,5.18
2023-01-22T19:44:00.012Z,5.57
2023-01-22T19:46:27.479Z,5.25
2023-01-22T19:48:54.749Z,4.47
2023-01-22T19:51:22.265Z,4.50
2023-01-22T19:53:49.012Z,4.70
2023-01-22T19:56:20.842Z,4.82
2023-01-22T19:58:47.894Z,5.50
2023-01-22T20:01:14.840Z,5.32
2023-01-22T20:03:41.483Z,5.95
2023-01-22T20:06:08.890Z,5.07
2023-01-22T20:08:36.353Z,5.00
2023-01-22T20:11:03.500Z,5.80
2023-01-22T20:13:30.105Z,5.22
2023-01-22T20:15:56.757Z,5.80
2023-01-22T20:18:23.048Z,5.60
2023-01-22T20:20:56.529Z,5.95
2023-01-22T20:23:23.501Z,5.38
2023-01-22T20:25:50.114Z,5.70
2023-01-22T20:28:17.442Z,6.95
2023-01-22T20:30:44.498Z,6.22
2023-01-22T20:33:11.305Z,7.03
2023-01-22T20:35:43.730Z,6.68
2023-01-22T20:38:09.965Z,5.82
2023-01-22T20:40:38.564Z,5.70
2023-01-22T20:43:05.272Z,5.97
2023-01-22T20:45:31.651Z,5.70
2023-01-22T20:47:58.038Z,6.03
2023-01-22T20:50:24.467Z,6.53
2023-01-22T20:52:53.082Z,6.05
2023-01-22T20:55:19.811Z,6.63
2023-01-22T20:57:46.266Z,5.90
2023-01-22T21:00:12.908Z,6.05
2023-01-22T21:02:39.235Z,6.18
2023-01-22T21:05:05.651Z,6.57
2023-01-22T21:07:32.013Z,6.88
2023-01-22T21:09:58.341Z,6.57
2023-01-22T21:12:24.775Z,5.60
2023-01-22T21:14:57.667Z,5.50
2023-01-22T21:17:24.065Z,6.50
2023-01-22T21:19:51.565Z,5.40
2023-01-22T21:22:17.952Z,5.53
2023-01-22T21:24:44.354Z,6.18
2023-01-22T21:27:10.767Z,5.72
2023-01-22T21:29:37.247Z,5.78
2023-01-22T21:32:03.711Z,6.10
2023-01-22T21:34:30.139Z,5.72
2023-01-22T21:36:58.644Z,6.00
2023-01-22T21:39:28.093Z,5.57
2023-01-22T21:42:13.325Z,5.70
2023-01-22T21:44:58.694Z,6.18
2023-01-22T21:47:25.028Z,5.32
2023-01-22T21:49:51.338Z,6.20
2023-01-22T21:52:17.604Z,5.20
2023-01-22T21:54:43.930Z,5.40
2023-01-22T21:57:14.198Z,5.28
2023-01-22T21:59:40.773Z,5.38
2023-01-22T22:02:07.870Z,5.20
2023-01-22T22:04:34.230Z,5.82
2023-01-22T22:07:00.587Z,5.38
2023-01-22T22:09:27.489Z,5.10
2023-01-22T22:11:57.551Z,5.57
2023-01-22T22:14:24.481Z,5.55
2023-01-22T22:16:50.883Z,5.28
2023-01-22T22:19:17.787Z,5.72
2023-01-22T22:21:44.459Z,5.90
2023-01-22T22:24:10.815Z,6.20
2023-01-22T22:26:37.315Z,7.15
2023-01-22T22:29:04.484Z,6.05
2023-01-22T22:31:30.788Z,5.57
2023-01-22T22:33:57.197Z,5.88
2023-01-22T22:36:25.193Z,4.95
2023-01-22T22:38:51.612Z,4.53
2023-01-22T22:41:21.881Z,4.85
2023-01-22T22:43:50.753Z,4.93
2023-01-22T22:46:23.199Z,4.97
2023-01-22T22:48:50.273Z,5.30
2023-01-22T22:51:19.967Z,5.28
2023-01-22T22:53:46.778Z,5.35
2023-01-22T22:56:13.328Z,5.60
2023-01-22T22:58:39.604Z,5.78
2023-01-22T23:01:06.889Z,5.63
2023-01-22T23:03:35.020Z,5.10
2023-01-22T23:06:08.155Z,5.70
2023-01-22T23:08:35.905Z,6.18
2023-01-22T23:11:05.936Z,6.10
2023-01-22T23:13:32.285Z,5.97
2023-01-22T23:15:59.583Z,6.20
2023-01-22T23:18:26.278Z,6.55
2023-01-22T23:20:52.552Z,6.35
2023-01-22T23:23:18.862Z,6.35
2023-01-22T23:25:45.270Z,6.63
2023-01-22T23:28:11.562Z,6.47
2023-01-22T23:30:39.123Z,6.13
2023-01-22T23:33:05.479Z,6.20
2023-01-22T23:35:31.808Z,6.55
2023-01-22T23:37:58.063Z,6.78
2023-01-22T23:40:24.368Z,6.20
2023-01-22T23:42:50.693Z,6.68
2023-01-22T23:45:17.071Z,6.05
2023-01-22T23:47:43.414Z,6.35
2023-01-22T23:50:10.249Z,5.55
2023-01-22T23:52:36.685Z,6.20
2023-01-22T23:55:03.069Z,6.65
2023-01-22T23:57:29.341Z,5.85
2023-01-22T23:59:55.603Z,5.80
